Time;durP1;ratioP1;P1;durP2;ratioP2;P2;SDS_P1;SDS_P2;PMS_P1;PMS_P2;Temp;Humidity;BMP_temperature;BMP_pressure;BME280_temperature;BME280_humidity;BME280_pressure;Samples;Min_cycle;Max_cycle;Signal;HPM_P1;HPM_P2
2022/04/15 00:02:17;;;;;;;27.55;18.13;;;11.20;99.90;;;;;;5075749;28;20025;-81
2022/04/15 00:04:43;;;;;;;32.08;19.92;;;11.00;99.90;;;;;;5058435;28;20025;-81
2022/04/15 00:07:10;;;;;;;28.02;19.83;;;11.00;99.90;;;;;;5075878;28;20042;-81
2022/04/15 00:09:36;;;;;;;39.33;21.40;;;10.80;99.90;;;;;;5076063;28;20029;-81
2022/04/15 00:12:07;;;;;;;34.30;21.10;;;10.70;99.90;;;;;;5075872;28;20089;-81
2022/04/15 00:14:34;;;;;;;39.03;22.90;;;10.70;99.90;;;;;;5076082;28;20103;-81
2022/04/15 00:17:00;;;;;;;39.00;23.45;;;10.70;99.90;;;;;;5075742;28;20472;-81
2022/04/15 00:19:27;;;;;;;35.22;21.77;;;10.70;99.90;;;;;;5057979;28;20162;-81
2022/04/15 00:21:52;;;;;;;33.22;21.00;;;10.70;99.90;;;;;;5075535;28;20028;-81
2022/04/15 00:24:18;;;;;;;33.75;22.45;;;10.80;99.90;;;;;;5057796;28;20025;-81
2022/04/15 00:26:44;;;;;;;43.60;22.20;;;10.80;99.90;;;;;;5075815;28;20055;-81
2022/04/15 00:29:09;;;;;;;39.33;22.95;;;10.80;99.90;;;;;;5075727;28;20066;-81
2022/04/15 00:31:35;;;;;;;37.13;21.90;;;10.80;99.90;;;;;;5075647;28;20039;-81
2022/04/15 00:34:03;;;;;;;42.08;22.33;;;10.80;99.90;;;;;;5057530;28;20032;-81
2022/04/15 00:36:29;;;;;;;36.15;21.88;;;10.80;99.90;;;;;;5075355;28;20020;-81
2022/04/15 00:38:55;;;;;;;34.78;20.80;;;10.90;99.90;;;;;;5075528;28;20104;-81
2022/04/15 00:41:21;;;;;;;32.65;22.00;;;10.80;99.90;;;;;;5075548;28;20095;-81
2022/04/15 00:43:46;;;;;;;32.40;21.38;;;10.80;99.90;;;;;;5075524;28;20025;-81
2022/04/15 00:46:12;;;;;;;36.28;21.20;;;10.80;99.90;;;;;;5075492;28;20442;-81
2022/04/15 00:48:38;;;;;;;34.08;19.95;;;10.80;99.90;;;;;;5075284;28;20035;-81
2022/04/15 00:51:05;;;;;;;35.08;21.02;;;10.70;99.90;;;;;;5075383;28;20074;-81
2022/04/15 00:53:33;;;;;;;31.63;20.25;;;10.70;99.90;;;;;;5057049;28;20554;-81
2022/04/15 00:56:01;;;;;;;39.33;21.65;;;10.70;99.90;;;;;;5075187;28;20020;-81
2022/04/15 00:58:29;;;;;;;33.72;19.92;;;10.70;99.90;;;;;;5075285;28;20024;-81
2022/04/15 01:00:59;;;;;;;37.38;21.48;;;10.70;99.90;;;;;;5075090;28;20056;-81
2022/04/15 01:03:25;;;;;;;38.17;20.70;;;10.70;99.90;;;;;;5075161;28;20353;-81
2022/04/15 01:05:55;;;;;;;42.80;22.52;;;10.70;99.90;;;;;;5075064;28;20074;-81
2022/04/15 01:08:23;;;;;;;37.33;22.50;;;10.70;99.90;;;;;;5073537;28;20054;-81
2022/04/15 01:10:52;;;;;;;40.75;21.73;;;10.70;99.90;;;;;;5075027;28;20046;-81
2022/04/15 01:13:21;;;;;;;35.67;20.73;;;10.60;99.90;;;;;;5074745;28;20021;-81
2022/04/15 01:15:48;;;;;;;36.85;21.90;;;10.60;99.90;;;;;;5074791;28;20032;-81
2022/04/15 01:18:17;;;;;;;43.40;23.30;;;10.60;99.90;;;;;;5074893;28;20067;-81
2022/04/15 01:20:43;;;;;;;35.05;22.90;;;10.60;99.90;;;;;;5056807;28;20016;-81
2022/04/15 01:23:10;;;;;;;35.03;20.40;;;10.60;99.90;;;;;;5056276;28;20480;-81
2022/04/15 01:25:36;;;;;;;38.08;21.55;;;10.50;99.90;;;;;;5074458;28;20060;-81
2022/04/15 01:28:02;;;;;;;32.63;20.25;;;10.50;99.90;;;;;;5074493;28;20032;-81
2022/04/15 01:30:28;;;;;;;32.35;20.15;;;10.40;99.90;;;;;;5074706;28;20028;-81
2022/04/15 01:32:54;;;;;;;34.53;21.73;;;10.40;99.90;;;;;;5074444;28;20047;-81
2022/04/15 01:35:20;;;;;;;32.40;20.05;;;10.40;99.90;;;;;;5074475;28;20035;-81
2022/04/15 01:37:47;;;;;;;38.63;21.98;;;10.40;99.90;;;;;;5074003;28;20016;-81
2022/04/15 01:40:14;;;;;;;38.10;20.52;;;10.40;99.90;;;;;;5074254;28;20503;-81
2022/04/15 01:42:41;;;;;;;40.00;22.73;;;10.30;99.90;;;;;;5074452;28;20013;-81
2022/04/15 01:45:08;;;;;;;32.20;20.55;;;10.30;99.90;;;;;;5074291;28;20032;-81
2022/04/15 01:47:34;;;;;;;34.05;20.83;;;10.30;99.90;;;;;;5074406;28;20372;-81
2022/04/15 01:50:03;;;;;;;39.72;23.08;;;10.30;99.90;;;;;;5074345;28;20024;-81
2022/04/15 01:52:28;;;;;;;45.30;23.63;;;10.20;99.90;;;;;;5073889;28;20024;-81
2022/04/15 01:54:54;;;;;;;34.33;21.13;;;10.30;99.90;;;;;;5073892;28;20032;-81
2022/04/15 01:57:19;;;;;;;37.70;22.38;;;10.30;99.90;;;;;;5056313;28;20028;-81
2022/04/15 01:59:46;;;;;;;35.90;22.38;;;10.20;99.90;;;;;;5074211;28;20024;-81
2022/04/15 02:02:12;;;;;;;40.10;19.83;;;10.20;99.90;;;;;;5073922;28;20031;-81
2022/04/15 02:04:37;;;;;;;35.00;22.10;;;10.20;99.90;;;;;;5073814;28;20029;-81
2022/04/15 02:07:04;;;;;;;37.83;23.48;;;10.20;99.90;;;;;;5073627;28;20136;-81
2022/04/15 02:09:30;;;;;;;34.25;22.50;;;10.20;99.90;;;;;;5073811;28;20031;-81
2022/04/15 02:11:55;;;;;;;36.97;20.50;;;10.30;99.90;;;;;;5073803;28;20376;-81
2022/04/15 02:14:21;;;;;;;40.47;20.75;;;10.30;99.90;;;;;;5073589;28;20108;-81
2022/04/15 02:16:50;;;;;;;38.58;22.90;;;10.20;99.90;;;;;;5073805;28;20023;-81
2022/04/15 02:19:15;;;;;;;43.78;22.15;;;10.20;99.90;;;;;;5073183;28;20017;-81
2022/04/15 02:21:41;;;;;;;37.33;21.55;;;10.20;99.90;;;;;;5073331;28;20047;-82
2022/04/15 02:24:08;;;;;;;40.38;22.70;;;10.20;99.90;;;;;;5073439;28;20024;-81
2022/04/15 02:26:34;;;;;;;29.70;21.20;;;10.20;99.90;;;;;;5073387;28;20060;-81
2022/04/15 02:28:59;;;;;;;39.33;21.38;;;10.20;99.90;;;;;;5073430;28;20024;-81
2022/04/15 02:31:25;;;;;;;34.20;22.02;;;10.20;99.90;;;;;;5073478;28;20031;-81
2022/04/15 02:33:51;;;;;;;38.22;20.92;;;10.20;99.90;;;;;;5073242;28;20071;-81
2022/04/15 02:36:17;;;;;;;32.97;21.83;;;10.20;99.90;;;;;;5054947;28;20024;-81
2022/04/15 02:38:43;;;;;;;31.98;19.85;;;10.20;99.90;;;;;;5073591;28;20055;-81
2022/04/15 02:41:09;;;;;;;34.10;19.90;;;10.20;99.90;;;;;;5055306;28;20061;-81
2022/04/15 02:43:38;;;;;;;38.83;20.08;;;10.20;99.90;;;;;;5055176;28;20052;-81
2022/04/15 02:46:06;;;;;;;36.58;20.15;;;10.10;99.90;;;;;;5073205;28;20025;-81
2022/04/15 02:48:32;;;;;;;43.65;23.33;;;10.10;99.90;;;;;;5072695;28;20052;-81
2022/04/15 02:50:59;;;;;;;40.22;24.05;;;10.20;99.90;;;;;;5054317;28;20021;-81
2022/04/15 02:53:25;;;;;;;42.65;25.20;;;10.10;99.90;;;;;;5072825;28;20033;-81
2022/04/15 02:55:52;;;;;;;40.08;25.52;;;10.10;99.90;;;;;;5054756;28;20025;-81
2022/04/15 02:58:17;;;;;;;54.58;30.48;;;10.00;99.90;;;;;;5072762;28;20486;-81
2022/04/15 03:00:43;;;;;;;51.15;29.35;;;10.00;99.90;;;;;;5072930;28;20048;-81
2022/04/15 03:03:09;;;;;;;56.13;30.50;;;10.00;99.90;;;;;;5072784;28;20368;-81
2022/04/15 03:05:35;;;;;;;61.08;33.28;;;9.90;99.90;;;;;;5072793;28;20546;-81
2022/04/15 03:08:01;;;;;;;48.78;31.75;;;9.90;99.90;;;;;;5072509;28;20408;-81
2022/04/15 03:10:26;;;;;;;51.42;32.38;;;9.90;99.90;;;;;;5072858;28;20024;-81
2022/04/15 03:12:52;;;;;;;56.15;32.95;;;9.80;99.90;;;;;;5072705;28;20031;-81
2022/04/15 03:15:17;;;;;;;44.65;29.60;;;9.90;99.90;;;;;;5072530;28;20441;-81
2022/04/15 03:17:43;;;;;;;51.85;29.13;;;9.80;99.90;;;;;;5054893;28;20115;-81
2022/04/15 03:20:09;;;;;;;57.25;29.05;;;9.70;99.90;;;;;;5054736;28;20028;-81
2022/04/15 03:22:40;;;;;;;54.13;28.90;;;9.60;99.90;;;;;;5072133;28;20069;-82
2022/04/15 03:25:07;;;;;;;58.58;29.00;;;9.60;99.90;;;;;;5051199;28;20041;-81
2022/04/15 03:27:33;;;;;;;49.63;27.77;;;9.50;99.90;;;;;;5052719;28;20566;-81
2022/04/15 03:29:59;;;;;;;52.40;28.75;;;9.40;99.90;;;;;;5052652;28;20021;-81
2022/04/15 03:32:24;;;;;;;54.38;29.02;;;9.40;99.90;;;;;;5051709;28;20021;-80
2022/04/15 03:34:54;;;;;;;56.03;29.88;;;9.30;99.90;;;;;;5051159;28;20040;-80
2022/04/15 03:37:20;;;;;;;46.88;26.35;;;9.20;99.90;;;;;;5052081;28;20480;-81
2022/04/15 03:39:46;;;;;;;49.88;27.13;;;9.20;99.90;;;;;;5052438;28;20021;-81
2022/04/15 03:42:11;;;;;;;56.15;27.35;;;9.10;99.90;;;;;;5051160;28;20465;-81
2022/04/15 03:44:37;;;;;;;52.22;25.63;;;9.00;99.90;;;;;;5051325;28;20158;-81
2022/04/15 03:47:04;;;;;;;50.40;26.75;;;9.00;99.90;;;;;;5052195;28;20033;-81
2022/04/15 03:49:29;;;;;;;57.55;27.25;;;8.90;99.90;;;;;;5052506;28;20064;-81
2022/04/15 03:51:55;;;;;;;50.15;25.85;;;8.90;99.90;;;;;;5052019;28;20083;-81
2022/04/15 03:54:20;;;;;;;49.95;24.65;;;8.80;99.90;;;;;;5052161;28;20507;-81
2022/04/15 03:56:46;;;;;;;70.60;28.55;;;8.80;99.90;;;;;;5052182;28;20444;-81
2022/04/15 03:59:13;;;;;;;41.92;25.20;;;8.70;99.90;;;;;;5051125;28;20055;-81
2022/04/15 04:01:42;;;;;;;52.47;26.08;;;8.60;99.90;;;;;;5050936;28;20021;-81
2022/04/15 04:04:08;;;;;;;49.85;24.15;;;8.50;99.90;;;;;;5052166;28;20029;-80
2022/04/15 04:06:33;;;;;;;42.15;21.30;;;8.50;99.90;;;;;;5051999;28;20025;-81
2022/04/15 04:08:59;;;;;;;48.00;22.77;;;8.50;99.90;;;;;;5051122;28;20025;-81
2022/04/15 04:11:24;;;;;;;49.25;22.95;;;8.40;99.90;;;;;;5052276;28;20052;-81
2022/04/15 04:13:51;;;;;;;45.17;23.52;;;8.40;99.90;;;;;;5052051;28;20033;-81
2022/04/15 04:16:18;;;;;;;48.47;22.40;;;8.30;99.90;;;;;;5052069;28;20043;-81
2022/04/15 04:18:44;;;;;;;45.05;22.70;;;8.30;99.90;;;;;;5052168;28;20024;-81
2022/04/15 04:21:10;;;;;;;51.10;24.30;;;8.30;99.90;;;;;;5050467;28;20116;-81
2022/04/15 04:23:36;;;;;;;53.13;25.17;;;8.20;99.90;;;;;;5051977;28;20099;-81
2022/04/15 04:26:03;;;;;;;58.30;26.70;;;8.30;99.90;;;;;;5063768;28;20040;-81
2022/04/15 04:28:29;;;;;;;51.50;26.40;;;8.20;99.90;;;;;;5054202;28;20029;-81
2022/04/15 04:30:55;;;;;;;53.17;28.98;;;8.20;99.90;;;;;;5053945;28;20358;-81
2022/04/15 04:33:21;;;;;;;75.53;35.75;;;8.30;99.90;;;;;;5071916;28;20027;-81
2022/04/15 04:35:47;;;;;;;63.22;35.33;;;8.30;99.90;;;;;;5053610;28;20032;-81
2022/04/15 04:38:13;;;;;;;76.63;38.28;;;8.30;99.90;;;;;;5071931;28;20021;-81
2022/04/15 04:40:39;;;;;;;83.32;41.58;;;8.30;99.90;;;;;;5071968;28;20021;-81
2022/04/15 04:43:05;;;;;;;74.03;40.13;;;8.30;99.90;;;;;;5073060;28;20021;-81
2022/04/15 04:45:32;;;;;;;91.45;46.60;;;8.30;99.90;;;;;;5057646;28;20480;-81
2022/04/15 04:48:00;;;;;;;77.10;42.92;;;8.20;99.90;;;;;;5075365;28;20109;-81
2022/04/15 04:50:25;;;;;;;96.72;46.17;;;8.30;99.90;;;;;;5075341;28;20056;-81
2022/04/15 04:52:51;;;;;;;92.47;45.28;;;8.20;99.90;;;;;;5074948;28;20032;-81
2022/04/15 04:55:17;;;;;;;83.68;44.45;;;8.20;99.90;;;;;;5075044;28;20021;-80
2022/04/15 04:57:43;;;;;;;79.03;44.75;;;8.20;99.90;;;;;;5075095;28;20372;-81
2022/04/15 05:00:12;;;;;;;87.35;45.28;;;8.20;99.90;;;;;;5075266;28;20028;-80
2022/04/15 05:02:38;;;;;;;84.35;44.80;;;8.10;99.90;;;;;;5057062;28;20025;-81
2022/04/15 05:05:04;;;;;;;89.72;48.42;;;8.10;99.90;;;;;;5075095;28;20350;-81
2022/04/15 05:07:30;;;;;;;93.35;47.47;;;8.10;99.90;;;;;;5074723;28;20020;-81
2022/04/15 05:09:56;;;;;;;83.57;48.65;;;8.10;99.90;;;;;;5075035;28;20058;-81
2022/04/15 05:12:22;;;;;;;99.93;52.25;;;8.10;99.90;;;;;;5056859;28;20028;-81
2022/04/15 05:14:48;;;;;;;83.97;49.67;;;8.10;99.90;;;;;;5074945;28;20020;-81
2022/04/15 05:17:14;;;;;;;74.85;48.22;;;8.10;99.90;;;;;;5056833;28;20039;-81
2022/04/15 05:19:41;;;;;;;87.07;46.95;;;8.10;99.90;;;;;;5074825;28;20036;-81
2022/04/15 05:22:08;;;;;;;81.47;46.35;;;8.10;99.90;;;;;;5074435;28;20028;-81
2022/04/15 05:24:34;;;;;;;81.50;44.78;;;8.10;99.90;;;;;;5074662;28;20054;-81
2022/04/15 05:27:00;;;;;;;73.07;43.25;;;8.10;99.90;;;;;;5074591;28;20055;-81
2022/04/15 05:29:27;;;;;;;74.30;42.20;;;8.10;99.90;;;;;;5074683;28;20024;-81
2022/04/15 05:31:52;;;;;;;72.15;40.22;;;8.00;99.90;;;;;;5074751;28;20025;-81
2022/04/15 05:34:18;;;;;;;60.85;36.85;;;8.00;99.90;;;;;;5074299;28;20028;-81
2022/04/15 05:36:44;;;;;;;59.15;35.80;;;8.00;99.90;;;;;;5074177;28;20029;-81
2022/04/15 05:39:09;;;;;;;53.25;31.88;;;8.00;99.90;;;;;;5074453;28;20399;-81
2022/04/15 05:41:35;;;;;;;59.80;29.92;;;8.00;99.90;;;;;;5055886;28;20024;-81
2022/04/15 05:44:03;;;;;;;41.30;24.30;;;8.00;99.90;;;;;;5074057;28;20044;-81
2022/04/15 05:46:29;;;;;;;41.75;24.52;;;8.00;99.90;;;;;;5074215;28;20070;-81
2022/04/15 05:48:55;;;;;;;35.92;20.83;;;7.90;99.90;;;;;;5055805;28;20468;-81
2022/04/15 05:51:20;;;;;;;47.95;21.45;;;7.90;99.90;;;;;;5073822;28;20028;-81
2022/04/15 05:53:46;;;;;;;37.58;20.63;;;7.90;99.90;;;;;;5074081;28;20063;-81
2022/04/15 05:56:12;;;;;;;35.72;22.23;;;7.80;99.90;;;;;;5055875;28;20044;-81
2022/04/15 05:58:39;;;;;;;38.60;22.35;;;7.80;99.90;;;;;;5073968;28;20024;-81
2022/04/15 06:01:06;;;;;;;38.05;21.88;;;7.70;99.90;;;;;;5074106;28;20020;-81
2022/04/15 06:03:33;;;;;;;34.72;21.27;;;7.80;99.90;;;;;;5073987;28;20023;-81
2022/04/15 06:06:00;;;;;;;32.28;21.30;;;7.70;99.90;;;;;;5055773;28;20357;-81
2022/04/15 06:08:26;;;;;;;42.17;21.63;;;7.70;99.90;;;;;;5073859;28;20028;-81
2022/04/15 06:10:52;;;;;;;39.28;23.13;;;7.70;99.90;;;;;;5073805;28;20480;-81
2022/04/15 06:13:25;;;;;;;43.08;23.70;;;7.70;99.90;;;;;;5073605;28;20078;-81
2022/04/15 06:15:56;;;;;;;33.38;22.50;;;7.60;99.90;;;;;;5073659;28;20034;-81
2022/04/15 06:18:26;;;;;;;45.25;25.35;;;7.70;99.90;;;;;;5073595;28;20481;-81
2022/04/15 06:20:52;;;;;;;41.78;23.15;;;7.70;99.90;;;;;;5073338;28;20025;-81
2022/04/15 06:23:20;;;;;;;37.80;23.70;;;7.60;99.90;;;;;;5073361;28;20028;-81
2022/04/15 06:25:46;;;;;;;43.53;22.30;;;7.60;99.90;;;;;;5073299;28;20064;-81
2022/04/15 06:28:12;;;;;;;35.53;22.80;;;7.60;99.90;;;;;;5073411;28;20035;-81
2022/04/15 06:30:37;;;;;;;34.55;21.17;;;7.60;99.90;;;;;;5073393;28;20029;-81
2022/04/15 06:33:08;;;;;;;29.88;19.35;;;7.60;99.90;;;;;;5073294;28;20021;-81
2022/04/15 06:35:35;;;;;;;34.15;20.85;;;7.50;99.90;;;;;;5072896;28;20024;-81
2022/04/15 06:38:00;;;;;;;31.95;19.80;;;7.50;99.90;;;;;;5073343;28;20032;-81
2022/04/15 06:40:27;;;;;;;26.73;19.65;;;7.60;99.90;;;;;;5055351;28;20027;-81
2022/04/15 06:42:53;;;;;;;25.90;17.38;;;7.60;99.90;;;;;;5073251;28;20024;-81
2022/04/15 06:46:12;;;;;;;27.55;17.98;;;7.60;99.90;;;;;;5073806;28;20035;-93
2022/04/15 06:48:38;;;;;;;27.90;17.33;;;7.60;99.90;;;;;;5055737;28;20074;-93
2022/04/15 06:51:11;;;;;;;27.02;17.73;;;7.60;99.90;;;;;;5073378;28;20024;-93
2022/04/15 06:53:36;;;;;;;33.20;20.50;;;7.60;99.90;;;;;;5055504;28;20020;-94
2022/04/15 06:56:14;;;;;;;25.25;19.05;;;7.60;99.90;;;;;;5055834;28;20036;-93
2022/04/15 06:58:41;;;;;;;28.60;19.52;;;7.60;99.90;;;;;;5055511;28;20032;-93
2022/04/15 07:01:12;;;;;;;32.20;22.20;;;7.70;99.90;;;;;;5055559;28;20016;-93
2022/04/15 07:03:39;;;;;;;33.33;21.45;;;7.80;99.90;;;;;;5073347;28;20040;-93
2022/04/15 07:06:55;;;;;;;35.75;20.63;;;7.70;99.90;;;;;;5072554;28;20028;-93
2022/04/15 07:09:21;;;;;;;33.78;23.33;;;7.70;99.90;;;;;;5073272;28;20025;-93
2022/04/15 07:12:09;;;;;;;33.45;23.45;;;7.80;99.90;;;;;;5073363;28;20124;-93
2022/04/15 07:14:35;;;;;;;35.15;22.13;;;7.80;99.90;;;;;;5055346;28;20036;-93
2022/04/15 07:17:27;;;;;;;31.80;22.67;;;7.80;99.90;;;;;;5073497;28;20031;-92
2022/04/15 07:19:52;;;;;;;31.60;19.95;;;7.80;99.90;;;;;;5055373;28;20112;-93
2022/04/15 07:22:22;;;;;;;25.63;19.13;;;7.80;99.90;;;;;;5055126;28;20111;-92
2022/04/15 07:24:50;;;;;;;24.85;17.27;;;7.80;99.90;;;;;;5073127;28;20025;-94
2022/04/15 07:27:16;;;;;;;23.17;15.82;;;7.80;99.90;;;;;;5055227;28;20099;-93
2022/04/15 07:29:53;;;;;;;24.55;17.60;;;7.80;99.90;;;;;;5073200;28;20059;-93
2022/04/15 07:32:22;;;;;;;22.70;15.13;;;7.80;99.90;;;;;;5072837;28;20055;-93
2022/04/15 07:35:03;;;;;;;20.15;14.73;;;7.90;99.90;;;;;;5055043;28;20463;-93
2022/04/15 07:37:29;;;;;;;20.58;14.77;;;7.80;99.90;;;;;;5072913;28;20017;-92
2022/04/15 07:40:11;;;;;;;18.02;14.90;;;7.80;99.90;;;;;;5072883;28;20047;-93
2022/04/15 07:42:37;;;;;;;23.92;15.02;;;7.80;99.90;;;;;;5054719;28;20031;-81
2022/04/15 07:45:02;;;;;;;22.85;16.42;;;7.80;99.90;;;;;;5072717;28;20406;-81
2022/04/15 07:47:28;;;;;;;17.77;14.98;;;7.90;99.90;;;;;;5054368;28;20024;-81
2022/04/15 07:49:54;;;;;;;16.27;14.27;;;7.90;99.90;;;;;;5054658;28;20032;-81
2022/04/15 07:52:19;;;;;;;20.83;15.30;;;7.90;99.90;;;;;;5054134;28;20444;-81
2022/04/15 07:54:46;;;;;;;21.60;15.60;;;7.90;99.90;;;;;;5072360;28;20036;-81
2022/04/15 07:57:11;;;;;;;19.52;13.43;;;7.90;99.90;;;;;;5072424;28;20021;-81
2022/04/15 07:59:37;;;;;;;16.88;12.95;;;7.90;99.90;;;;;;5072159;28;20492;-81
2022/04/15 08:02:05;;;;;;;20.48;13.80;;;7.90;99.90;;;;;;5072148;28;20071;-80
2022/04/15 08:04:34;;;;;;;22.10;15.15;;;7.90;99.90;;;;;;5054295;28;20430;-81
2022/04/15 08:07:00;;;;;;;20.25;15.10;;;7.90;99.90;;;;;;5072029;28;20032;-81
2022/04/15 08:09:25;;;;;;;24.23;16.42;;;7.80;99.90;;;;;;5054167;28;20115;-81
2022/04/15 08:11:54;;;;;;;21.80;15.68;;;7.90;99.90;;;;;;5072414;28;20170;-81
2022/04/15 08:14:20;;;;;;;23.17;15.50;;;7.90;99.90;;;;;;5072040;28;20025;-80
2022/04/15 08:16:45;;;;;;;21.50;14.43;;;8.00;99.90;;;;;;5072228;28;20067;-80
2022/04/15 08:19:11;;;;;;;21.80;14.00;;;8.00;99.90;;;;;;5075329;28;20056;-80
2022/04/15 08:21:36;;;;;;;16.38;11.43;;;8.00;99.90;;;;;;5075523;28;20021;-81
2022/04/15 08:24:02;;;;;;;16.98;10.82;;;8.00;99.90;;;;;;5057982;28;20024;-81
2022/04/15 08:26:29;;;;;;;15.07;11.45;;;8.00;99.90;;;;;;5075564;28;20094;-81
2022/04/15 08:28:55;;;;;;;12.80;9.82;;;8.10;99.90;;;;;;5075796;28;20027;-81
2022/04/15 08:31:20;;;;;;;13.40;9.70;;;8.10;99.90;;;;;;5075716;28;20453;-81
2022/04/15 08:33:46;;;;;;;10.90;7.60;;;8.20;99.90;;;;;;5075186;28;20028;-81
2022/04/15 08:36:12;;;;;;;9.02;7.00;;;8.30;99.90;;;;;;5074995;28;20657;-81
2022/04/15 08:38:38;;;;;;;7.53;6.72;;;8.30;99.90;;;;;;5075423;28;20025;-81
2022/04/15 08:41:05;;;;;;;12.20;6.50;;;8.50;99.90;;;;;;5075041;28;20025;-81
2022/04/15 08:43:30;;;;;;;12.40;7.88;;;8.50;99.90;;;;;;5075435;28;20016;-81
2022/04/15 08:45:56;;;;;;;12.35;8.57;;;8.60;99.90;;;;;;5075470;28;20024;-81
2022/04/15 08:48:23;;;;;;;11.30;8.57;;;8.70;99.90;;;;;;5075491;28;20108;-81
2022/04/15 08:50:50;;;;;;;16.45;11.00;;;8.80;99.90;;;;;;5074991;28;20499;-81
2022/04/15 08:53:18;;;;;;;14.88;10.43;;;8.80;99.90;;;;;;5057292;28;20024;-81
2022/04/15 08:55:44;;;;;;;17.73;12.25;;;8.90;99.90;;;;;;5075322;28;20025;-81
2022/04/15 08:58:10;;;;;;;20.25;13.15;;;9.00;99.90;;;;;;5057589;28;20047;-81
2022/04/15 09:00:36;;;;;;;21.80;12.90;;;9.10;99.90;;;;;;5074950;28;20570;-81
2022/04/15 09:03:03;;;;;;;15.30;11.48;;;9.10;99.90;;;;;;5075154;28;20423;-81
2022/04/15 09:05:29;;;;;;;11.02;8.10;;;9.10;99.90;;;;;;5074833;28;20457;-81
2022/04/15 09:08:10;;;;;;;9.13;7.50;;;9.10;99.90;;;;;;5074947;28;20112;-81
2022/04/15 09:10:39;;;;;;;12.75;8.35;;;9.20;99.90;;;;;;5074889;28;20029;-81
2022/04/15 09:13:05;;;;;;;13.35;8.75;;;9.10;99.90;;;;;;5074975;28;20518;-81
2022/04/15 09:15:31;;;;;;;11.20;8.63;;;9.10;99.90;;;;;;5074968;28;20087;-81
2022/04/15 09:17:59;;;;;;;12.00;7.90;;;9.10;99.90;;;;;;5074885;28;20025;-81
2022/04/15 09:20:28;;;;;;;11.57;8.02;;;9.20;99.90;;;;;;5074400;28;20048;-81
2022/04/15 09:22:55;;;;;;;11.52;7.88;;;9.20;99.90;;;;;;5056787;28;20067;-81
2022/04/15 09:25:28;;;;;;;11.95;8.13;;;9.10;99.90;;;;;;5056638;28;20385;-81
2022/04/15 09:27:57;;;;;;;12.65;8.73;;;9.20;99.90;;;;;;5074721;28;20472;-81
2022/04/15 09:30:37;;;;;;;14.55;11.13;;;9.20;99.90;;;;;;5073399;28;20042;-80
2022/04/15 09:33:03;;;;;;;14.82;10.27;;;9.20;99.90;;;;;;5054925;28;20035;-81
2022/04/15 09:35:29;;;;;;;16.17;10.60;;;9.10;99.90;;;;;;5056140;28;20028;-80
2022/04/15 09:38:03;;;;;;;15.23;11.55;;;9.20;99.90;;;;;;5074385;28;20428;-81
2022/04/15 09:40:31;;;;;;;15.63;12.20;;;9.20;99.90;;;;;;5074209;28;20017;-81
2022/04/15 09:42:58;;;;;;;14.05;10.48;;;9.20;99.90;;;;;;5074256;28;20476;-81
2022/04/15 09:45:34;;;;;;;14.40;9.15;;;9.20;99.90;;;;;;5056407;28;20035;-82
2022/04/15 09:48:09;;;;;;;15.30;9.52;;;9.30;99.90;;;;;;5074281;28;20031;-81
2022/04/15 09:50:42;;;;;;;14.15;8.48;;;9.30;99.90;;;;;;5073781;28;20036;-81
2022/04/15 09:53:10;;;;;;;14.57;8.50;;;9.30;99.90;;;;;;5074189;28;20028;-81
2022/04/15 09:55:39;;;;;;;15.68;7.97;;;9.30;99.90;;;;;;5056011;28;20103;-81
2022/04/15 09:58:15;;;;;;;13.90;9.05;;;9.40;99.90;;;;;;5074267;28;20024;-81
2022/04/15 10:00:43;;;;;;;14.73;10.63;;;9.30;99.90;;;;;;5074165;28;20033;-81
2022/04/15 10:03:11;;;;;;;17.25;13.60;;;9.30;99.90;;;;;;5056091;28;20039;-81
2022/04/15 10:05:38;;;;;;;19.25;13.70;;;9.30;99.90;;;;;;5073400;28;20028;-82
2022/04/15 10:08:05;;;;;;;19.92;14.85;;;9.30;99.90;;;;;;5073892;28;20024;-81
2022/04/15 10:10:31;;;;;;;16.48;14.13;;;9.20;99.90;;;;;;5055848;28;20032;-81
2022/04/15 10:13:03;;;;;;;17.60;14.40;;;9.30;99.90;;;;;;5073671;28;20528;-81
2022/04/15 10:15:30;;;;;;;25.55;17.95;;;9.20;99.90;;;;;;5073580;28;20430;-81
2022/04/15 10:17:59;;;;;;;26.75;19.58;;;9.30;99.90;;;;;;5073615;28;20032;-81
2022/04/15 10:20:26;;;;;;;23.83;19.30;;;9.40;99.90;;;;;;5073319;28;20025;-80
2022/04/15 10:22:54;;;;;;;28.13;21.35;;;9.40;99.90;;;;;;5055537;28;20048;-81
2022/04/15 10:25:20;;;;;;;28.55;21.05;;;9.30;99.90;;;;;;5073367;28;20054;-81
2022/04/15 10:27:45;;;;;;;27.00;21.45;;;9.30;99.90;;;;;;5073454;28;20029;-81
2022/04/15 10:30:15;;;;;;;32.35;21.83;;;9.30;99.90;;;;;;5073524;28;20036;-81
2022/04/15 10:32:52;;;;;;;27.40;19.48;;;9.30;99.90;;;;;;5055466;28;20530;-81
2022/04/15 10:35:27;;;;;;;27.80;19.02;;;9.40;99.90;;;;;;5072901;28;20387;-81
2022/04/15 10:38:11;;;;;;;26.75;20.38;;;9.40;99.90;;;;;;5073197;28;20021;-81
2022/04/15 10:40:42;;;;;;;29.15;21.10;;;9.40;99.90;;;;;;5072770;28;20016;-81
2022/04/15 10:43:27;;;;;;;28.85;22.33;;;9.40;99.90;;;;;;5073169;28;20024;-81
2022/04/15 10:46:13;;;;;;;33.88;24.65;;;9.30;99.90;;;;;;5073241;28;20055;-81
2022/04/15 10:48:41;;;;;;;33.20;23.30;;;9.30;99.90;;;;;;5055721;28;20483;-81
2022/04/15 10:51:34;;;;;;;30.75;22.90;;;9.30;99.90;;;;;;5072898;28;20028;-81
2022/04/15 10:54:45;;;;;;;33.00;22.30;;;9.40;99.90;;;;;;5072923;28;20028;-81
2022/04/15 10:57:16;;;;;;;29.98;21.58;;;9.40;99.90;;;;;;5073041;28;20024;-81
2022/04/15 11:02:51;;;;;;;30.70;20.85;;;9.60;99.90;;;;;;5072965;28;20035;-81
2022/04/15 11:05:57;;;;;;;29.63;21.20;;;9.60;99.90;;;;;;5054608;28;20357;-81
2022/04/15 11:08:24;;;;;;;29.10;19.27;;;9.60;99.90;;;;;;5073091;28;20024;-81
2022/04/15 11:11:01;;;;;;;29.13;19.88;;;9.60;99.90;;;;;;5072736;28;20032;-81
2022/04/15 11:13:40;;;;;;;23.75;19.23;;;9.70;99.90;;;;;;5072830;28;20028;-81
2022/04/15 11:16:13;;;;;;;29.90;20.73;;;9.60;99.90;;;;;;5072670;28;20029;-81
2022/04/15 11:18:55;;;;;;;34.72;23.70;;;9.60;99.90;;;;;;5054665;28;20033;-81
2022/04/15 11:21:22;;;;;;;28.60;21.45;;;9.60;99.90;;;;;;5072231;28;20016;-80
2022/04/15 11:23:53;;;;;;;31.10;20.98;;;9.60;99.90;;;;;;5072406;28;20078;-81
2022/04/15 11:26:21;;;;;;;25.23;19.17;;;9.60;99.90;;;;;;5072463;28;20044;-81
2022/04/15 11:28:48;;;;;;;30.17;22.23;;;9.60;99.90;;;;;;5072558;28;20027;-80
2022/04/15 11:31:34;;;;;;;31.50;20.98;;;9.70;99.90;;;;;;5054640;28;20025;-80
2022/04/15 11:34:04;;;;;;;29.98;22.35;;;9.60;99.90;;;;;;5072487;28;20126;-80
2022/04/15 11:36:39;;;;;;;27.67;20.35;;;9.70;99.90;;;;;;5072242;28;20519;-80
2022/04/15 11:39:07;;;;;;;26.67;19.58;;;9.70;99.90;;;;;;5072646;28;20020;-80
2022/04/15 11:41:33;;;;;;;32.80;19.20;;;9.70;99.90;;;;;;5072542;28;20048;-81
2022/04/15 11:44:06;;;;;;;24.77;20.42;;;9.70;99.90;;;;;;5054570;28;20074;-81
2022/04/15 11:46:53;;;;;;;26.83;20.42;;;9.70;99.90;;;;;;5072472;28;20111;-81
2022/04/15 11:49:26;;;;;;;29.80;21.23;;;9.80;99.90;;;;;;5072422;28;20380;-80
2022/04/15 11:51:53;;;;;;;31.17;19.40;;;9.80;99.90;;;;;;5072416;28;20108;-81
2022/04/15 11:54:33;;;;;;;28.80;20.45;;;9.80;99.90;;;;;;5057814;28;20039;-81
2022/04/15 11:57:00;;;;;;;24.40;18.85;;;9.80;99.90;;;;;;5076218;28;20368;-81
2022/04/15 11:59:26;;;;;;;26.15;18.90;;;9.90;99.90;;;;;;5076389;28;20469;-81
2022/04/15 12:01:56;;;;;;;21.58;16.98;;;9.90;99.90;;;;;;5076367;28;20025;-81
2022/04/15 12:04:21;;;;;;;21.90;15.82;;;10.00;99.90;;;;;;5075869;28;20031;-81
2022/04/15 12:06:48;;;;;;;17.38;13.65;;;10.10;99.90;;;;;;5076242;28;20465;-81
2022/04/15 12:09:15;;;;;;;22.38;14.23;;;10.10;99.90;;;;;;5076124;28;20020;-81
2022/04/15 12:11:41;;;;;;;16.92;12.95;;;10.10;99.90;;;;;;5076101;28;20025;-81
2022/04/15 12:14:08;;;;;;;17.23;12.57;;;10.20;99.90;;;;;;5076001;28;20376;-81
2022/04/15 12:16:38;;;;;;;17.90;12.27;;;10.20;99.90;;;;;;5057782;28;20021;-80
2022/04/15 12:19:05;;;;;;;18.13;13.85;;;10.30;99.90;;;;;;5057868;28;20031;-81
2022/04/15 12:21:32;;;;;;;19.58;14.45;;;10.50;99.90;;;;;;5075608;28;20053;-81
2022/04/15 12:24:03;;;;;;;22.58;14.57;;;10.50;99.90;;;;;;5057278;28;20437;-80
2022/04/15 12:26:40;;;;;;;18.30;12.63;;;10.70;99.90;;;;;;5075716;28;20075;-81
2022/04/15 12:31:49;;;;;;;18.35;12.85;;;10.80;99.90;;;;;;5075790;28;20093;-80
2022/04/15 12:34:15;;;;;;;15.93;12.70;;;10.80;99.90;;;;;;5057568;28;20029;-81
2022/04/15 12:36:43;;;;;;;14.85;13.25;;;10.70;99.90;;;;;;5075703;28;20043;-80
2022/04/15 12:39:10;;;;;;;20.98;14.75;;;10.60;99.90;;;;;;5057742;28;20016;-81
2022/04/15 12:41:41;;;;;;;22.73;14.75;;;10.60;99.90;;;;;;5075463;28;20021;-80
2022/04/15 12:44:15;;;;;;;16.13;12.65;;;10.50;99.90;;;;;;5057659;28;20075;-81
2022/04/15 12:46:46;;;;;;;16.90;12.80;;;10.50;99.90;;;;;;5057369;28;20547;-80
2022/04/15 12:49:26;;;;;;;19.67;12.57;;;10.40;99.90;;;;;;5075562;28;20017;-80